Time;durP1;ratioP1;P1;durP2;ratioP2;P2;SDS_P1;SDS_P2;PMS_P1;PMS_P2;Temp;Humidity;BMP_temperature;BMP_pressure;BME280_temperature;BME280_humidity;BME280_pressure;Samples;Min_cycle;Max_cycle;Signal;HPM_P1;HPM_P2
2023/10/27 00:01:16;;;;;;;33.95;24.45;;;9.80;99.90;;;;;;5090007;28;20115;-78
2023/10/27 00:03:42;;;;;;;32.20;23.83;;;9.80;99.90;;;;;;5100826;28;20062;-78
2023/10/27 00:06:07;;;;;;;31.80;23.95;;;9.80;99.90;;;;;;5080218;28;20055;-78
2023/10/27 00:08:33;;;;;;;31.30;23.40;;;9.80;99.90;;;;;;5109321;28;20048;-78
2023/10/27 00:11:05;;;;;;;32.55;24.65;;;9.80;99.90;;;;;;5102790;28;20071;-78
2023/10/27 00:13:30;;;;;;;31.50;23.58;;;9.70;99.90;;;;;;5103880;28;20039;-77
2023/10/27 00:15:56;;;;;;;30.85;22.73;;;9.70;99.90;;;;;;5102021;28;20123;-78
2023/10/27 00:18:22;;;;;;;29.10;22.95;;;9.70;99.90;;;;;;5108244;27;20041;-78
2023/10/27 00:20:47;;;;;;;26.63;20.55;;;9.70;99.90;;;;;;5095576;28;20080;-78
2023/10/27 00:23:15;;;;;;;29.52;21.58;;;9.90;99.90;;;;;;5096576;28;20059;-79
2023/10/27 00:25:40;;;;;;;27.80;18.42;;;9.70;99.90;;;;;;5096688;28;20090;-79
2023/10/27 00:28:06;;;;;;;24.95;19.58;;;9.70;99.90;;;;;;5082450;28;20045;-78
2023/10/27 00:30:32;;;;;;;22.20;17.92;;;9.70;99.90;;;;;;5089696;28;20028;-78
2023/10/27 00:32:57;;;;;;;21.40;17.45;;;9.70;99.90;;;;;;5082010;28;20058;-77
2023/10/27 00:35:23;;;;;;;21.08;16.38;;;9.70;99.90;;;;;;5084532;28;20045;-78
2023/10/27 00:37:52;;;;;;;21.73;17.88;;;9.70;99.90;;;;;;5070953;28;20041;-80
2023/10/27 00:40:17;;;;;;;23.92;18.30;;;9.80;99.90;;;;;;5092101;28;20044;-77
2023/10/27 00:42:43;;;;;;;21.60;17.67;;;9.70;99.90;;;;;;5080619;28;20052;-78
2023/10/27 00:45:09;;;;;;;21.77;17.98;;;9.70;99.90;;;;;;5078279;28;20048;-77
2023/10/27 00:47:35;;;;;;;23.88;18.15;;;9.70;99.90;;;;;;5092874;28;20038;-78
2023/10/27 00:50:01;;;;;;;24.83;19.10;;;9.70;99.90;;;;;;5060776;28;20060;-79
2023/10/27 00:52:29;;;;;;;23.27;18.95;;;9.80;99.90;;;;;;5098234;28;20127;-78
2023/10/27 00:54:55;;;;;;;28.40;16.73;;;9.70;99.90;;;;;;5094311;28;20448;-78
2023/10/27 00:57:23;;;;;;;23.88;19.90;;;10.00;99.90;;;;;;5079503;28;20051;-78
2023/10/27 00:59:52;;;;;;;26.13;20.00;;;9.70;99.90;;;;;;5085514;28;20466;-79
2023/10/27 01:02:18;;;;;;;25.00;19.92;;;9.70;99.90;;;;;;5077088;28;20059;-78
2023/10/27 01:04:45;;;;;;;25.80;20.52;;;9.70;99.90;;;;;;5068412;28;20041;-78
2023/10/27 01:07:11;;;;;;;26.48;20.98;;;9.80;99.90;;;;;;5074380;28;20048;-78
2023/10/27 01:09:37;;;;;;;28.02;20.70;;;9.70;99.90;;;;;;5058999;28;20440;-80
2023/10/27 01:12:03;;;;;;;29.80;21.27;;;9.70;99.90;;;;;;5084156;28;20490;-78
2023/10/27 01:14:28;;;;;;;29.20;21.98;;;9.70;99.90;;;;;;5090750;28;20358;-79
2023/10/27 01:16:56;;;;;;;32.50;22.27;;;9.80;99.90;;;;;;5061043;28;20041;-79
2023/10/27 01:19:22;;;;;;;32.22;22.75;;;9.70;99.90;;;;;;5068346;28;20044;-79
2023/10/27 01:21:48;;;;;;;32.85;23.95;;;9.70;99.90;;;;;;5090464;28;20115;-79
2023/10/27 01:24:13;;;;;;;34.53;24.05;;;9.70;99.90;;;;;;5095883;28;20040;-79
2023/10/27 01:26:39;;;;;;;31.27;23.42;;;10.50;99.90;;;;;;5083856;28;20048;-79
2023/10/27 01:29:04;;;;;;;40.33;25.02;;;9.70;99.90;;;;;;5106601;28;20044;-78
2023/10/27 01:31:30;;;;;;;34.88;23.88;;;9.70;99.90;;;;;;5089207;28;20063;-79
2023/10/27 01:33:58;;;;;;;33.70;24.65;;;9.90;99.90;;;;;;5094872;28;20040;-78
2023/10/27 01:36:24;;;;;;;38.78;26.42;;;9.70;99.90;;;;;;5084333;28;20047;-78
2023/10/27 01:38:50;;;;;;;35.30;24.40;;;9.70;99.90;;;;;;5093248;28;20044;-79
2023/10/27 01:41:15;;;;;;;37.25;25.33;;;9.70;99.90;;;;;;5084443;28;20040;-79
2023/10/27 01:43:41;;;;;;;37.25;25.85;;;9.70;99.90;;;;;;5076660;28;20053;-77
2023/10/27 01:46:07;;;;;;;41.13;26.70;;;9.70;99.90;;;;;;5087588;28;20354;-79
2023/10/27 01:48:33;;;;;;;42.00;27.23;;;9.70;99.90;;;;;;5097264;28;20086;-78
2023/10/27 01:51:01;;;;;;;38.33;26.45;;;9.70;99.90;;;;;;5096390;28;20055;-79
2023/10/27 01:53:28;;;;;;;39.47;26.58;;;9.60;99.90;;;;;;5077997;28;20045;-78
2023/10/27 01:55:53;;;;;;;38.53;27.02;;;9.70;99.90;;;;;;5076517;28;20055;-79
2023/10/27 01:58:24;;;;;;;42.95;28.42;;;9.70;99.90;;;;;;5079887;28;20447;-79
2023/10/27 02:00:49;;;;;;;42.20;27.65;;;9.70;99.90;;;;;;5094679;28;20044;-78
2023/10/27 02:03:18;;;;;;;38.53;28.45;;;9.70;99.90;;;;;;5079949;28;20070;-78
2023/10/27 02:05:44;;;;;;;36.22;27.65;;;9.70;99.90;;;;;;5080541;28;20488;-78
2023/10/27 02:08:10;;;;;;;37.50;26.70;;;9.70;99.90;;;;;;5078671;28;20374;-78
2023/10/27 02:10:35;;;;;;;38.08;27.08;;;9.70;99.90;;;;;;5084662;28;20055;-77
2023/10/27 02:13:01;;;;;;;35.80;27.48;;;9.70;99.90;;;;;;5080189;28;20045;-79
2023/10/27 02:15:27;;;;;;;39.55;26.40;;;9.60;99.90;;;;;;5075775;28;20504;-78
2023/10/27 02:17:52;;;;;;;36.40;27.52;;;9.60;99.90;;;;;;5083517;28;20405;-78
2023/10/27 02:20:18;;;;;;;35.42;25.65;;;9.70;99.90;;;;;;5075775;28;20119;-79
2023/10/27 02:22:44;;;;;;;37.00;25.63;;;9.70;99.90;;;;;;5075840;28;20037;-78
2023/10/27 02:25:09;;;;;;;36.88;25.98;;;9.80;99.90;;;;;;5075943;28;20045;-78
2023/10/27 02:27:40;;;;;;;31.38;24.30;;;9.70;99.90;;;;;;5094514;28;20036;-80
2023/10/27 02:30:07;;;;;;;30.05;22.98;;;9.60;99.90;;;;;;5106468;28;20083;-80
2023/10/27 02:32:36;;;;;;;31.40;24.00;;;9.60;99.90;;;;;;5079470;28;20042;-79
2023/10/27 02:35:01;;;;;;;33.42;25.30;;;9.60;99.90;;;;;;5092155;28;20040;-80
2023/10/27 02:37:27;;;;;;;33.47;24.13;;;9.60;99.90;;;;;;5077752;28;20354;-78
2023/10/27 02:39:53;;;;;;;32.83;24.50;;;9.60;99.90;;;;;;5076903;28;20140;-79
2023/10/27 02:42:18;;;;;;;37.33;25.35;;;9.60;99.90;;;;;;5091169;28;20048;-79
2023/10/27 02:44:44;;;;;;;34.67;24.02;;;9.60;99.90;;;;;;5083631;28;20078;-78
2023/10/27 02:47:10;;;;;;;32.13;24.60;;;9.60;99.90;;;;;;5112256;28;20493;-79
2023/10/27 02:49:35;;;;;;;36.50;24.73;;;9.60;99.90;;;;;;5092492;28;20043;-79
2023/10/27 02:52:01;;;;;;;32.13;23.85;;;9.50;99.90;;;;;;5097517;28;20068;-79
2023/10/27 02:54:27;;;;;;;31.40;23.58;;;9.60;99.90;;;;;;5095134;28;20044;-79
2023/10/27 02:56:52;;;;;;;31.90;24.02;;;9.60;99.90;;;;;;5079279;28;20460;-79
2023/10/27 02:59:18;;;;;;;30.20;23.85;;;9.50;99.90;;;;;;5096221;28;20484;-79
2023/10/27 03:01:46;;;;;;;32.65;23.88;;;9.60;99.90;;;;;;5092176;28;20048;-78
2023/10/27 03:04:12;;;;;;;33.08;24.33;;;9.50;99.90;;;;;;5079615;28;20587;-79
2023/10/27 03:06:38;;;;;;;31.77;23.67;;;9.50;99.90;;;;;;5094483;28;20043;-77
2023/10/27 03:09:04;;;;;;;32.50;23.05;;;9.50;99.90;;;;;;5106895;28;20044;-79
2023/10/27 03:11:30;;;;;;;27.95;22.92;;;9.60;99.90;;;;;;5085579;28;20143;-78
2023/10/27 03:13:56;;;;;;;33.00;23.67;;;9.60;99.90;;;;;;5102857;28;20441;-79
2023/10/27 03:16:22;;;;;;;29.08;23.25;;;9.60;99.90;;;;;;5105715;28;20048;-78
2023/10/27 03:18:48;;;;;;;33.00;24.23;;;9.50;99.90;;;;;;5096005;28;20037;-78
2023/10/27 03:21:14;;;;;;;30.02;23.02;;;9.60;99.90;;;;;;5085421;28;20138;-79
2023/10/27 03:23:40;;;;;;;29.65;23.67;;;9.50;99.90;;;;;;5079276;28;20052;-78
2023/10/27 03:26:06;;;;;;;31.70;24.08;;;9.60;99.90;;;;;;5080178;28;20040;-78
2023/10/27 03:28:32;;;;;;;32.85;23.83;;;9.50;99.90;;;;;;5099016;28;20037;-78
2023/10/27 03:30:58;;;;;;;33.92;25.00;;;9.50;99.90;;;;;;5082333;28;20048;-79
2023/10/27 03:33:24;;;;;;;32.67;23.95;;;10.30;99.90;;;;;;5100479;28;20048;-78
2023/10/27 03:35:50;;;;;;;32.15;23.70;;;9.50;99.90;;;;;;5088489;28;20051;-78
2023/10/27 03:38:17;;;;;;;36.15;26.10;;;9.50;99.90;;;;;;5083681;28;20062;-78
2023/10/27 03:40:44;;;;;;;32.95;23.80;;;9.50;99.90;;;;;;5087732;28;20052;-78
2023/10/27 03:43:10;;;;;;;32.63;21.95;;;9.50;99.90;;;;;;5106134;28;20115;-78
2023/10/27 03:45:36;;;;;;;35.97;25.75;;;9.50;99.90;;;;;;5113409;28;20048;-79
2023/10/27 03:48:03;;;;;;;33.55;25.55;;;9.60;99.90;;;;;;5100658;28;20468;-79
2023/10/27 03:50:28;;;;;;;37.22;26.45;;;9.50;99.90;;;;;;5112232;28;20156;-79
2023/10/27 03:52:54;;;;;;;35.05;25.40;;;9.50;99.90;;;;;;5103507;27;20036;-78
2023/10/27 03:55:20;;;;;;;35.13;25.05;;;9.50;99.90;;;;;;5080282;28;20419;-78
2023/10/27 03:57:45;;;;;;;36.95;25.60;;;9.60;99.90;;;;;;5091412;28;20079;-79
2023/10/27 04:00:13;;;;;;;35.35;25.05;;;9.50;99.90;;;;;;5086749;28;20040;-79
2023/10/27 04:02:39;;;;;;;32.83;25.63;;;9.50;99.90;;;;;;5097017;28;20056;-79
2023/10/27 04:05:06;;;;;;;35.70;25.70;;;9.50;99.90;;;;;;5064316;28;20049;-78
2023/10/27 04:07:32;;;;;;;32.85;25.10;;;9.40;99.90;;;;;;5091998;28;20036;-79
2023/10/27 04:09:58;;;;;;;36.85;24.98;;;10.00;99.90;;;;;;5081782;28;20055;-79
2023/10/27 04:12:24;;;;;;;34.83;25.48;;;9.40;99.90;;;;;;5084502;28;20072;-78
2023/10/27 04:14:50;;;;;;;36.67;25.98;;;9.90;99.90;;;;;;5072246;28;20090;-79
2023/10/27 04:17:15;;;;;;;38.28;26.05;;;9.40;99.90;;;;;;5091244;28;20096;-79
2023/10/27 04:19:45;;;;;;;38.20;26.55;;;9.40;99.90;;;;;;5102448;28;20036;-78
2023/10/27 04:22:11;;;;;;;34.78;26.08;;;9.30;99.90;;;;;;5109023;28;20056;-80
2023/10/27 04:24:39;;;;;;;43.40;26.77;;;9.40;99.90;;;;;;5101725;28;20078;-79
2023/10/27 04:27:04;;;;;;;36.67;26.02;;;10.20;99.90;;;;;;5098328;28;20040;-80
2023/10/27 04:29:31;;;;;;;38.72;27.52;;;9.30;99.90;;;;;;5081926;28;20036;-79
2023/10/27 04:31:56;;;;;;;36.88;27.27;;;9.80;99.90;;;;;;5079975;28;20044;-78
2023/10/27 04:34:22;;;;;;;44.78;28.05;;;9.60;99.90;;;;;;5078416;28;20037;-78
2023/10/27 04:36:51;;;;;;;38.60;27.35;;;9.30;99.90;;;;;;5068190;28;20036;-79
2023/10/27 04:39:16;;;;;;;41.03;28.05;;;9.30;99.90;;;;;;5099164;28;20093;-78
2023/10/27 04:41:42;;;;;;;38.65;27.00;;;9.30;99.90;;;;;;5120424;28;20036;-79
2023/10/27 04:44:08;;;;;;;33.85;25.20;;;9.30;99.90;;;;;;5101384;28;20055;-78
2023/10/27 04:46:34;;;;;;;36.67;26.17;;;9.20;99.90;;;;;;5098291;28;20063;-77
2023/10/27 04:49:00;;;;;;;39.05;27.10;;;9.20;99.90;;;;;;5096388;28;20393;-78
2023/10/27 04:51:26;;;;;;;39.90;27.27;;;9.50;99.90;;;;;;5080983;28;20055;-80
2023/10/27 04:53:52;;;;;;;42.28;27.75;;;9.20;99.90;;;;;;5082501;28;20065;-78
2023/10/27 04:56:18;;;;;;;41.40;27.85;;;9.20;99.90;;;;;;5075883;28;20044;-79
2023/10/27 04:58:44;;;;;;;38.63;27.23;;;9.20;99.90;;;;;;5084424;28;20358;-78
2023/10/27 05:01:11;;;;;;;37.83;27.83;;;9.10;99.90;;;;;;5076279;28;20056;-77
2023/10/27 05:03:37;;;;;;;37.65;27.42;;;9.20;99.90;;;;;;5087903;28;20135;-78
2023/10/27 05:06:11;;;;;;;39.72;27.40;;;9.20;99.90;;;;;;5078922;28;20083;-78
2023/10/27 05:08:37;;;;;;;38.58;26.63;;;9.20;99.90;;;;;;5080095;28;20040;-78
2023/10/27 05:11:06;;;;;;;42.70;27.65;;;9.70;99.90;;;;;;5096576;28;20070;-78
2023/10/27 05:13:32;;;;;;;38.28;27.45;;;9.20;99.90;;;;;;5096713;28;20047;-78
2023/10/27 05:15:58;;;;;;;39.20;26.88;;;9.20;99.90;;;;;;5106555;28;20070;-79
2023/10/27 05:18:24;;;;;;;44.38;26.77;;;9.10;99.90;;;;;;5104933;28;20136;-78
2023/10/27 05:20:49;;;;;;;40.33;27.25;;;9.10;99.90;;;;;;5086665;28;20094;-79
2023/10/27 05:23:15;;;;;;;35.08;26.00;;;9.10;99.90;;;;;;5082285;28;20041;-79
2023/10/27 05:25:41;;;;;;;35.10;26.23;;;9.10;99.90;;;;;;5077656;28;20154;-79
2023/10/27 05:28:10;;;;;;;36.35;25.77;;;9.20;99.90;;;;;;5079605;28;20052;-79
2023/10/27 05:30:37;;;;;;;37.55;24.73;;;9.10;99.90;;;;;;5081303;28;20044;-79
2023/10/27 05:33:03;;;;;;;36.80;24.80;;;9.20;99.90;;;;;;5065456;28;20044;-78
2023/10/27 05:35:28;;;;;;;39.22;25.35;;;9.70;99.90;;;;;;5083959;28;20085;-78
2023/10/27 05:37:54;;;;;;;34.08;25.20;;;9.10;99.90;;;;;;5078509;28;20124;-78
2023/10/27 05:40:20;;;;;;;35.25;25.00;;;9.20;99.90;;;;;;5095305;28;20040;-79
2023/10/27 05:42:46;;;;;;;36.05;25.20;;;9.20;99.90;;;;;;5095134;28;20051;-78
2023/10/27 05:45:14;;;;;;;35.20;24.67;;;9.20;99.90;;;;;;5096268;28;20036;-78
2023/10/27 05:47:41;;;;;;;34.17;23.65;;;9.20;99.90;;;;;;5059841;28;20041;-79
2023/10/27 05:50:09;;;;;;;33.55;24.98;;;9.20;99.90;;;;;;5081768;28;20072;-79
2023/10/27 05:52:35;;;;;;;34.30;25.42;;;9.20;99.90;;;;;;5083973;28;20085;-78
2023/10/27 05:55:01;;;;;;;32.28;23.15;;;9.30;99.90;;;;;;5082554;28;20413;-79
2023/10/27 05:57:26;;;;;;;32.25;23.75;;;9.30;99.90;;;;;;5093255;28;20044;-79
2023/10/27 05:59:52;;;;;;;30.80;23.65;;;9.70;99.90;;;;;;5089244;28;20047;-78
2023/10/27 06:02:18;;;;;;;32.65;24.20;;;9.30;99.90;;;;;;5078145;28;20509;-77
2023/10/27 06:04:44;;;;;;;35.75;25.02;;;9.30;99.90;;;;;;5078125;28;20478;-79
2023/10/27 06:07:09;;;;;;;31.40;23.63;;;9.40;99.90;;;;;;5092565;28;20048;-78
2023/10/27 06:09:36;;;;;;;29.38;23.15;;;9.30;99.90;;;;;;5076418;28;20040;-78
2023/10/27 06:12:02;;;;;;;32.13;23.42;;;9.30;99.90;;;;;;5080233;28;20155;-78
2023/10/27 06:14:28;;;;;;;29.80;22.17;;;9.30;99.90;;;;;;5059417;28;20084;-79
2023/10/27 06:16:54;;;;;;;29.70;22.67;;;9.40;99.90;;;;;;5075960;28;20047;-80
2023/10/27 06:19:20;;;;;;;31.85;23.83;;;9.40;99.90;;;;;;5079750;28;20452;-78
2023/10/27 06:21:47;;;;;;;31.58;22.63;;;9.30;99.90;;;;;;5077602;28;20056;-78
2023/10/27 06:24:13;;;;;;;33.28;22.25;;;9.40;99.90;;;;;;5082012;28;20387;-78
2023/10/27 06:26:39;;;;;;;30.55;22.63;;;9.40;99.90;;;;;;5093760;28;20123;-79
2023/10/27 06:29:05;;;;;;;29.05;22.05;;;9.40;99.90;;;;;;5075054;28;20052;-78
2023/10/27 06:31:32;;;;;;;28.85;21.90;;;9.40;99.90;;;;;;5076433;28;20047;-80
2023/10/27 06:33:58;;;;;;;32.53;21.85;;;9.40;99.90;;;;;;5095473;28;20040;-78
2023/10/27 06:36:25;;;;;;;30.58;21.70;;;9.40;99.90;;;;;;5078472;28;20066;-78
2023/10/27 06:38:50;;;;;;;28.33;21.58;;;9.40;99.90;;;;;;5077522;28;20382;-78
2023/10/27 06:41:16;;;;;;;31.33;22.83;;;9.50;99.90;;;;;;5086746;28;20032;-78
2023/10/27 06:43:42;;;;;;;28.25;22.48;;;9.40;99.90;;;;;;5085195;28;20075;-79
2023/10/27 06:46:08;;;;;;;27.27;20.65;;;9.40;99.90;;;;;;5070941;28;20123;-79
2023/10/27 06:48:34;;;;;;;27.70;21.02;;;9.60;99.90;;;;;;5080359;28;20075;-79
2023/10/27 06:50:59;;;;;;;31.63;21.77;;;10.40;99.90;;;;;;5082498;28;20135;-79
2023/10/27 06:53:25;;;;;;;27.60;21.95;;;9.40;99.90;;;;;;5093658;28;20055;-79
2023/10/27 06:55:54;;;;;;;29.50;21.55;;;9.40;99.90;;;;;;5075537;28;20548;-79
2023/10/27 06:58:20;;;;;;;24.15;20.40;;;9.40;99.90;;;;;;5090699;28;20040;-79
2023/10/27 07:00:46;;;;;;;28.02;21.20;;;9.40;99.90;;;;;;5076401;28;20098;-79
2023/10/27 07:03:11;;;;;;;25.13;20.15;;;9.40;99.90;;;;;;5076710;28;20149;-79
2023/10/27 07:05:37;;;;;;;29.08;20.67;;;9.60;99.90;;;;;;5093571;28;20129;-79
2023/10/27 07:08:06;;;;;;;25.42;18.15;;;9.50;99.90;;;;;;5062160;28;20049;-81
2023/10/27 07:10:32;;;;;;;24.02;18.85;;;9.50;99.90;;;;;;5076575;28;20455;-79
2023/10/27 07:12:58;;;;;;;27.92;20.45;;;9.50;99.90;;;;;;5094511;28;20036;-80
2023/10/27 07:15:24;;;;;;;21.70;18.52;;;9.50;99.90;;;;;;5094014;28;20083;-78
2023/10/27 07:17:51;;;;;;;22.98;18.65;;;9.50;99.90;;;;;;5084686;28;20551;-79
2023/10/27 07:20:17;;;;;;;26.00;20.10;;;9.50;99.90;;;;;;5091665;28;20080;-78
2023/10/27 07:22:43;;;;;;;23.02;19.50;;;9.50;99.90;;;;;;5093637;28;20040;-79
2023/10/27 07:25:09;;;;;;;23.23;18.60;;;9.50;99.90;;;;;;5093290;28;20082;-78
2023/10/27 07:27:34;;;;;;;25.58;19.90;;;9.50;99.90;;;;;;5094336;28;20085;-79
2023/10/27 07:30:00;;;;;;;22.17;19.08;;;9.50;99.90;;;;;;5085876;28;20053;-80
2023/10/27 07:32:26;;;;;;;25.13;19.30;;;9.50;99.90;;;;;;5077505;28;20105;-80
2023/10/27 07:34:52;;;;;;;24.90;21.38;;;9.50;99.90;;;;;;5057746;28;20040;-79
2023/10/27 07:37:20;;;;;;;28.73;21.70;;;9.50;99.90;;;;;;5073412;28;20367;-78
2023/10/27 07:39:46;;;;;;;26.58;21.33;;;9.60;99.90;;;;;;5095397;28;20044;-79
2023/10/27 07:42:13;;;;;;;29.00;22.77;;;9.60;99.90;;;;;;5072727;28;20045;-79
2023/10/27 07:44:39;;;;;;;23.65;18.30;;;9.60;99.90;;;;;;5092966;28;20421;-79
2023/10/27 07:47:05;;;;;;;26.48;20.20;;;9.50;99.90;;;;;;5080506;28;20036;-79
2023/10/27 07:49:31;;;;;;;28.73;20.95;;;9.60;99.90;;;;;;5071980;28;20134;-77
2023/10/27 07:51:57;;;;;;;25.17;21.40;;;9.60;99.90;;;;;;5092302;28;20094;-79
2023/10/27 07:54:23;;;;;;;26.33;20.75;;;9.60;99.90;;;;;;5081255;28;20047;-78
2023/10/27 07:56:49;;;;;;;23.30;20.15;;;9.60;99.90;;;;;;5112370;28;20397;-78
2023/10/27 07:59:17;;;;;;;25.02;20.52;;;9.60;99.90;;;;;;5075063;28;20048;-78
2023/10/27 08:01:43;;;;;;;23.13;20.65;;;9.70;99.90;;;;;;5092430;28;20402;-80
2023/10/27 08:04:09;;;;;;;23.90;20.25;;;9.70;99.90;;;;;;5063938;28;20068;-78
2023/10/27 08:06:34;;;;;;;23.75;20.35;;;9.70;99.90;;;;;;5109193;28;20131;-79
2023/10/27 08:09:00;;;;;;;23.25;20.40;;;9.70;99.90;;;;;;5080747;28;20142;-78
2023/10/27 08:11:25;;;;;;;21.92;19.55;;;9.90;99.90;;;;;;5078311;28;20044;-79
2023/10/27 08:13:56;;;;;;;21.55;19.33;;;10.00;99.90;;;;;;5090904;28;20443;-79
2023/10/27 08:16:25;;;;;;;19.80;17.70;;;9.70;99.90;;;;;;5061274;28;20135;-78
2023/10/27 08:18:51;;;;;;;21.73;18.55;;;9.70;99.90;;;;;;5079354;28;20080;-79
2023/10/27 08:21:16;;;;;;;20.42;18.15;;;9.80;99.90;;;;;;5081998;28;20441;-79
2023/10/27 08:23:42;;;;;;;21.13;19.00;;;10.30;99.90;;;;;;5088258;28;20040;-78
2023/10/27 08:26:11;;;;;;;19.00;16.98;;;9.80;99.90;;;;;;5099176;28;20124;-79
2023/10/27 08:28:36;;;;;;;19.45;17.30;;;9.80;99.90;;;;;;5095625;28;20043;-79
2023/10/27 08:31:02;;;;;;;17.42;15.63;;;9.80;99.90;;;;;;5062607;28;20377;-78
2023/10/27 08:33:28;;;;;;;17.15;15.40;;;9.80;99.90;;;;;;5084823;28;20032;-78
2023/10/27 08:35:59;;;;;;;15.98;14.27;;;9.90;99.90;;;;;;5090147;28;20063;-80
2023/10/27 08:38:27;;;;;;;14.88;13.45;;;9.90;99.90;;;;;;5086174;28;20040;-79
2023/10/27 08:40:53;;;;;;;14.38;12.55;;;9.90;99.90;;;;;;5088269;28;20074;-77
2023/10/27 08:43:19;;;;;;;12.85;11.55;;;9.90;99.90;;;;;;5095882;28;20071;-79
2023/10/27 08:45:44;;;;;;;14.05;12.63;;;9.90;99.90;;;;;;5099028;28;20044;-77
2023/10/27 08:48:10;;;;;;;12.95;11.65;;;9.90;99.90;;;;;;5091806;28;20043;-78
2023/10/27 08:50:38;;;;;;;13.07;10.80;;;10.00;99.90;;;;;;5096855;28;20482;-78
2023/10/27 08:53:04;;;;;;;12.30;11.10;;;10.10;99.90;;;;;;5102863;28;20089;-79
2023/10/27 08:55:30;;;;;;;12.77;11.48;;;10.20;99.90;;;;;;5105308;28;20052;-78
2023/10/27 08:57:56;;;;;;;12.35;10.75;;;10.10;99.90;;;;;;5101501;28;20602;-78
2023/10/27 09:00:21;;;;;;;11.55;10.35;;;10.50;99.90;;;;;;5099478;28;20041;-78
2023/10/27 09:02:47;;;;;;;12.73;10.45;;;10.10;99.90;;;;;;5068348;28;20108;-79
2023/10/27 09:05:13;;;;;;;12.85;10.60;;;10.50;99.90;;;;;;5085504;28;20063;-78
2023/10/27 09:07:39;;;;;;;13.05;10.13;;;10.10;99.90;;;;;;5090507;28;20043;-78
2023/10/27 09:10:08;;;;;;;11.07;9.98;;;10.10;99.90;;;;;;5083819;28;20390;-77
2023/10/27 09:12:37;;;;;;;10.63;9.52;;;10.10;99.90;;;;;;5091431;28;20073;-80
2023/10/27 09:15:05;;;;;;;11.23;10.07;;;10.10;99.90;;;;;;5101895;28;20127;-78
2023/10/27 09:17:51;;;;;;;9.90;8.90;;;10.10;99.90;;;;;;5097046;28;20036;-78
2023/10/27 09:20:21;;;;;;;11.50;9.95;;;10.10;99.90;;;;;;5098465;28;20048;-78
2023/10/27 09:23:06;;;;;;;10.85;9.75;;;10.20;99.90;;;;;;5099434;28;20048;-79
2023/10/27 09:25:34;;;;;;;10.63;8.90;;;10.20;99.90;;;;;;5080132;28;20056;-78
2023/10/27 09:28:02;;;;;;;9.82;8.63;;;10.20;99.90;;;;;;5096106;28;20076;-78
2023/10/27 09:30:37;;;;;;;10.38;8.82;;;10.20;99.90;;;;;;5079939;28;20394;-79
2023/10/27 09:33:26;;;;;;;11.30;9.43;;;10.20;99.90;;;;;;5088621;28;20044;-79
2023/10/27 09:35:52;;;;;;;10.25;9.15;;;10.30;99.90;;;;;;5078256;28;20076;-78
2023/10/27 09:38:22;;;;;;;10.00;9.10;;;10.20;99.90;;;;;;5079158;28;20044;-78
2023/10/27 09:40:48;;;;;;;9.55;8.60;;;10.30;99.90;;;;;;5066937;28;20072;-79
2023/10/27 09:43:25;;;;;;;10.73;8.55;;;10.30;99.90;;;;;;5079106;28;20489;-80
2023/10/27 09:45:53;;;;;;;10.73;8.30;;;10.30;99.90;;;;;;5059382;28;20083;-79
2023/10/27 09:48:27;;;;;;;11.07;9.32;;;10.40;99.90;;;;;;5079991;28;20048;-80
2023/10/27 09:51:01;;;;;;;9.88;8.88;;;10.40;99.90;;;;;;5078753;28;20087;-78
2023/10/27 09:53:31;;;;;;;9.57;8.57;;;10.40;99.90;;;;;;5104418;28;20064;-78
2023/10/27 09:56:02;;;;;;;10.15;8.95;;;10.40;99.90;;;;;;5080378;28;20040;-78
2023/10/27 09:58:33;;;;;;;10.63;8.85;;;10.40;99.90;;;;;;5068436;28;20136;-78
2023/10/27 10:01:00;;;;;;;10.25;9.18;;;10.40;99.90;;;;;;5086735;28;20051;-78
2023/10/27 10:03:29;;;;;;;10.85;8.18;;;10.60;99.90;;;;;;5091451;28;20048;-81
2023/10/27 10:06:18;;;;;;;10.05;8.00;;;10.50;99.90;;;;;;5076463;28;20048;-77
2023/10/27 10:09:09;;;;;;;12.05;10.20;;;10.60;99.90;;;;;;5109941;27;20390;-78
2023/10/27 10:11:53;;;;;;;8.77;7.88;;;10.60;99.90;;;;;;5116624;28;20040;-79
2023/10/27 10:14:37;;;;;;;8.93;7.50;;;10.70;99.90;;;;;;5095831;28;20040;-79
2023/10/27 10:17:06;;;;;;;8.38;7.57;;;10.90;99.90;;;;;;5092246;28;20044;-78
2023/10/27 10:19:50;;;;;;;8.32;7.53;;;10.70;99.90;;;;;;5076755;28;20048;-79
2023/10/27 10:22:40;;;;;;;8.10;7.30;;;10.70;99.90;;;;;;5081504;28;20044;-79
2023/10/27 10:25:17;;;;;;;8.40;7.53;;;10.70;99.90;;;;;;5081795;28;20140;-81
2023/10/27 10:28:25;;;;;;;8.88;6.95;;;11.00;99.90;;;;;;5105810;28;20047;-79
2023/10/27 10:31:06;;;;;;;8.32;7.53;;;10.80;99.90;;;;;;5079589;28;20123;-79
2023/10/27 10:33:34;;;;;;;8.68;7.40;;;10.80;99.90;;;;;;5079185;28;20082;-79
2023/10/27 10:36:27;;;;;;;7.95;6.85;;;11.20;99.90;;;;;;5093151;28;20052;-79
2023/10/27 10:38:56;;;;;;;7.45;6.75;;;10.80;99.90;;;;;;5076225;28;20501;-79
2023/10/27 10:41:52;;;;;;;7.32;6.57;;;10.90;99.90;;;;;;5076219;28;20076;-79
2023/10/27 10:44:17;;;;;;;9.07;7.30;;;10.80;99.90;;;;;;5076085;28;20056;-78
2023/10/27 10:46:45;;;;;;;8.20;7.20;;;10.80;99.90;;;;;;5080428;28;20109;-78
2023/10/27 10:49:31;;;;;;;8.20;7.40;;;11.30;99.90;;;;;;5085227;28;20482;-79
2023/10/27 10:51:58;;;;;;;8.27;7.07;;;10.80;99.90;;;;;;5074846;28;20044;-78
2023/10/27 10:54:30;;;;;;;8.57;7.63;;;10.80;99.90;;;;;;5092216;28;20084;-78
2023/10/27 10:57:11;;;;;;;14.20;8.40;;;10.80;99.90;;;;;;5092216;28;20051;-78
2023/10/27 10:59:52;;;;;;;11.88;8.50;;;10.80;99.90;;;;;;5080178;28;20076;-79
2023/10/27 11:02:21;;;;;;;9.32;8.20;;;10.80;99.90;;;;;;5076182;28;20040;-78
2023/10/27 11:04:47;;;;;;;10.25;9.15;;;11.10;99.90;;;;;;5112165;28;20470;-78
2023/10/27 11:07:18;;;;;;;9.23;8.10;;;10.70;99.90;;;;;;5095457;28;20047;-78
2023/10/27 11:09:44;;;;;;;9.75;8.38;;;10.80;99.90;;;;;;5096802;28;20044;-78
2023/10/27 11:12:25;;;;;;;10.23;8.93;;;10.70;99.90;;;;;;5093588;28;20037;-78
2023/10/27 11:14:53;;;;;;;12.32;10.20;;;10.70;99.90;;;;;;5075998;28;20048;-79
2023/10/27 11:17:18;;;;;;;13.02;9.52;;;10.70;99.90;;;;;;5076120;28;20493;-79
2023/10/27 11:19:54;;;;;;;11.13;8.63;;;10.70;99.90;;;;;;5092120;28;20047;-80
2023/10/27 11:22:24;;;;;;;10.95;9.82;;;10.70;99.90;;;;;;5075410;28;20040;-78
2023/10/27 11:24:50;;;;;;;11.02;9.68;;;10.60;99.90;;;;;;5078077;28;20112;-79
2023/10/27 11:27:26;;;;;;;13.98;10.73;;;10.60;99.90;;;;;;5082918;28;20068;-80
2023/10/27 11:30:02;;;;;;;13.93;11.43;;;10.60;99.90;;;;;;5085023;28;20036;-79
2023/10/27 11:32:28;;;;;;;15.10;11.95;;;10.60;99.90;;;;;;5093901;28;20048;-78
2023/10/27 11:34:57;;;;;;;13.57;12.15;;;10.60;99.90;;;;;;5083336;28;20371;-79
2023/10/27 11:37:23;;;;;;;15.32;12.20;;;10.60;99.90;;;;;;5068845;28;20510;-78
2023/10/27 11:39:50;;;;;;;13.38;11.98;;;10.60;99.90;;;;;;5080158;28;20072;-78
2023/10/27 11:42:15;;;;;;;15.88;12.60;;;10.60;99.90;;;;;;5082593;28;20157;-79
2023/10/27 11:44:44;;;;;;;15.65;13.65;;;10.60;99.90;;;;;;5095208;28;20048;-79
2023/10/27 11:47:10;;;;;;;15.45;12.15;;;10.60;99.90;;;;;;5079703;28;20052;-79
2023/10/27 11:49:38;;;;;;;14.88;12.65;;;10.60;99.90;;;;;;5093233;28;20112;-79
2023/10/27 11:52:05;;;;;;;13.63;12.00;;;10.60;99.90;;;;;;5092965;28;20040;-79
2023/10/27 11:54:30;;;;;;;13.23;11.82;;;10.60;99.90;;;;;;5095857;28;20040;-79
2023/10/27 11:56:56;;;;;;;13.20;11.80;;;10.60;99.90;;;;;;5094594;28;20535;-80
2023/10/27 11:59:25;;;;;;;16.30;11.40;;;10.60;99.90;;;;;;5097435;28;20394;-80
2023/10/27 12:01:52;;;;;;;13.50;11.55;;;10.60;99.90;;;;;;5093926;28;20072;-79
2023/10/27 12:04:18;;;;;;;12.35;10.63;;;10.70;99.90;;;;;;5084143;28;20056;-79
2023/10/27 12:06:43;;;;;;;11.68;10.48;;;10.60;99.90;;;;;;5091184;28;20038;-78
2023/10/27 12:09:11;;;;;;;14.15;11.52;;;10.60;99.90;;;;;;5088930;28;20239;-79
2023/10/27 12:11:37;;;;;;;13.10;11.18;;;10.70;99.90;;;;;;5116508;28;20052;-78
2023/10/27 12:14:03;;;;;;;12.93;11.52;;;10.60;99.90;;;;;;5099569;28;20040;-79
2023/10/27 12:16:29;;;;;;;14.20;11.38;;;10.60;99.90;;;;;;5102267;28;20044;-79
2023/10/27 12:18:58;;;;;;;20.38;11.80;;;10.80;99.90;;;;;;5083221;28;20379;-79
2023/10/27 12:21:28;;;;;;;14.43;12.20;;;10.50;99.90;;;;;;5097805;28;20032;-79
2023/10/27 12:23:54;;;;;;;12.88;11.38;;;10.50;99.90;;;;;;5079476;28;20041;-80
2023/10/27 12:26:20;;;;;;;24.13;12.40;;;10.50;99.90;;;;;;5077613;28;20041;-78
2023/10/27 12:28:46;;;;;;;15.60;12.50;;;10.60;99.90;;;;;;5062198;28;20044;-78
2023/10/27 12:31:16;;;;;;;14.52;12.80;;;10.60;99.90;;;;;;5087578;28;20056;-79
2023/10/27 12:33:42;;;;;;;14.63;12.70;;;10.60;99.90;;;;;;5084755;28;20040;-79
2023/10/27 12:36:09;;;;;;;16.13;12.13;;;10.60;99.90;;;;;;5077973;28;20040;-79
2023/10/27 12:38:35;;;;;;;14.67;12.43;;;10.60;99.90;;;;;;5091715;28;20048;-78